sensor_id;sensor_type;location;lat;lon;timestamp;temperature;humidity
68691;DHT22;55675;49.588;8.640;2023-02-23T00:00:54;12.80;88.10
68691;DHT22;55675;49.588;8.640;2023-02-23T00:03:20;12.80;88.40
68691;DHT22;55675;49.588;8.640;2023-02-23T00:05:45;12.80;88.60
68691;DHT22;55675;49.588;8.640;2023-02-23T00:08:10;12.80;88.70
68691;DHT22;55675;49.588;8.640;2023-02-23T00:10:36;12.80;88.80
68691;DHT22;55675;49.588;8.640;2023-02-23T00:13:01;12.80;88.80
68691;DHT22;55675;49.588;8.640;2023-02-23T00:15:29;12.90;89.20
68691;DHT22;55675;49.588;8.640;2023-02-23T00:17:55;12.90;89.30
68691;DHT22;55675;49.588;8.640;2023-02-23T00:20:21;12.80;89.40
68691;DHT22;55675;49.588;8.640;2023-02-23T00:22:52;12.80;89.50
68691;DHT22;55675;49.588;8.640;2023-02-23T00:25:18;12.80;89.70
68691;DHT22;55675;49.588;8.640;2023-02-23T00:27:43;12.80;89.90
68691;DHT22;55675;49.588;8.640;2023-02-23T00:30:13;12.80;90.00
68691;DHT22;55675;49.588;8.640;2023-02-23T00:32:39;12.80;90.10
68691;DHT22;55675;49.588;8.640;2023-02-23T00:35:05;12.80;90.20
68691;DHT22;55675;49.588;8.640;2023-02-23T00:37:36;12.80;90.30
68691;DHT22;55675;49.588;8.640;2023-02-23T00:40:02;12.80;90.40
68691;DHT22;55675;49.588;8.640;2023-02-23T00:42:30;12.80;90.40
68691;DHT22;55675;49.588;8.640;2023-02-23T00:44:56;12.80;90.50
68691;DHT22;55675;49.588;8.640;2023-02-23T00:47:21;12.80;90.60
68691;DHT22;55675;49.588;8.640;2023-02-23T00:49:47;12.80;90.60
68691;DHT22;55675;49.588;8.640;2023-02-23T00:52:12;12.90;90.60
68691;DHT22;55675;49.588;8.640;2023-02-23T00:54:39;12.80;90.70
68691;DHT22;55675;49.588;8.640;2023-02-23T00:57:04;12.90;90.70
68691;DHT22;55675;49.588;8.640;2023-02-23T00:59:30;12.80;90.80
68691;DHT22;55675;49.588;8.640;2023-02-23T01:01:55;12.80;90.80
68691;DHT22;55675;49.588;8.640;2023-02-23T01:04:20;12.80;90.90
68691;DHT22;55675;49.588;8.640;2023-02-23T01:06:47;12.80;90.90
68691;DHT22;55675;49.588;8.640;2023-02-23T01:09:14;12.80;91.00
68691;DHT22;55675;49.588;8.640;2023-02-23T01:11:41;12.80;91.00
68691;DHT22;55675;49.588;8.640;2023-02-23T01:14:06;12.80;91.10
68691;DHT22;55675;49.588;8.640;2023-02-23T01:16:33;12.90;91.10
68691;DHT22;55675;49.588;8.640;2023-02-23T01:18:59;12.90;91.10
68691;DHT22;55675;49.588;8.640;2023-02-23T01:21:26;12.90;91.20
68691;DHT22;55675;49.588;8.640;2023-02-23T01:23:52;12.90;91.20
68691;DHT22;55675;49.588;8.640;2023-02-23T01:26:18;12.90;91.30
68691;DHT22;55675;49.588;8.640;2023-02-23T01:28:48;13.00;91.20
68691;DHT22;55675;49.588;8.640;2023-02-23T01:31:14;13.00;91.30
68691;DHT22;55675;49.588;8.640;2023-02-23T01:33:40;12.90;91.30
68691;DHT22;55675;49.588;8.640;2023-02-23T01:36:05;12.90;91.40
68691;DHT22;55675;49.588;8.640;2023-02-23T01:38:31;12.90;91.50
68691;DHT22;55675;49.588;8.640;2023-02-23T01:40:56;12.90;91.60
68691;DHT22;55675;49.588;8.640;2023-02-23T01:43:22;12.90;91.60
68691;DHT22;55675;49.588;8.640;2023-02-23T01:45:54;12.90;91.60
68691;DHT22;55675;49.588;8.640;2023-02-23T01:48:23;12.80;91.70
68691;DHT22;55675;49.588;8.640;2023-02-23T01:50:55;12.80;91.80
68691;DHT22;55675;49.588;8.640;2023-02-23T01:53:21;12.80;91.80
68691;DHT22;55675;49.588;8.640;2023-02-23T01:55:48;12.80;91.90
68691;DHT22;55675;49.588;8.640;2023-02-23T01:58:15;12.70;91.90
68691;DHT22;55675;49.588;8.640;2023-02-23T02:00:47;12.70;92.00
68691;DHT22;55675;49.588;8.640;2023-02-23T02:03:18;12.70;92.10
68691;DHT22;55675;49.588;8.640;2023-02-23T02:05:47;12.70;92.10
68691;DHT22;55675;49.588;8.640;2023-02-23T02:08:13;12.70;92.20
68691;DHT22;55675;49.588;8.640;2023-02-23T02:10:38;12.70;92.20
68691;DHT22;55675;49.588;8.640;2023-02-23T02:13:04;12.70;92.20
68691;DHT22;55675;49.588;8.640;2023-02-23T02:15:32;12.60;92.20
68691;DHT22;55675;49.588;8.640;2023-02-23T02:26:03;12.50;92.40
68691;DHT22;55675;49.588;8.640;2023-02-23T02:28:46;12.50;92.50
68691;DHT22;55675;49.588;8.640;2023-02-23T02:39:23;12.50;92.70
68691;DHT22;55675;49.588;8.640;2023-02-23T02:44:35;12.50;92.80
68691;DHT22;55675;49.588;8.640;2023-02-23T02:47:04;12.40;92.80
68691;DHT22;55675;49.588;8.640;2023-02-23T02:49:47;12.40;92.80
68691;DHT22;55675;49.588;8.640;2023-02-23T02:53:00;12.40;93.10
68691;DHT22;55675;49.588;8.640;2023-02-23T02:55:05;12.40;93.00
68691;DHT22;55675;49.588;8.640;2023-02-23T02:57:34;12.40;93.10
68691;DHT22;55675;49.588;8.640;2023-02-23T03:00:00;12.50;93.20
68691;DHT22;55675;49.588;8.640;2023-02-23T03:02:44;12.50;93.10
68691;DHT22;55675;49.588;8.640;2023-02-23T03:05:39;12.40;93.20
68691;DHT22;55675;49.588;8.640;2023-02-23T03:08:27;12.50;93.40
68691;DHT22;55675;49.588;8.640;2023-02-23T03:11:13;12.40;93.30
68691;DHT22;55675;49.588;8.640;2023-02-23T03:14:21;12.40;93.40
68691;DHT22;55675;49.588;8.640;2023-02-23T03:17:22;12.40;93.50
68691;DHT22;55675;49.588;8.640;2023-02-23T03:20:20;12.40;93.60
68691;DHT22;55675;49.588;8.640;2023-02-23T03:23:19;12.40;93.70
68691;DHT22;55675;49.588;8.640;2023-02-23T03:26:08;12.40;93.70
68691;DHT22;55675;49.588;8.640;2023-02-23T03:31:49;12.50;93.70
68691;DHT22;55675;49.588;8.640;2023-02-23T03:34:42;12.50;93.80
68691;DHT22;55675;49.588;8.640;2023-02-23T03:37:36;12.50;93.80
68691;DHT22;55675;49.588;8.640;2023-02-23T03:40:22;12.50;93.80
68691;DHT22;55675;49.588;8.640;2023-02-23T03:43:10;12.50;93.90
68691;DHT22;55675;49.588;8.640;2023-02-23T03:45:56;12.50;94.00
68691;DHT22;55675;49.588;8.640;2023-02-23T03:48:41;12.50;94.00
68691;DHT22;55675;49.588;8.640;2023-02-23T03:51:27;12.50;93.90
68691;DHT22;55675;49.588;8.640;2023-02-23T03:54:17;12.60;94.00
68691;DHT22;55675;49.588;8.640;2023-02-23T03:57:04;12.60;94.00
68691;DHT22;55675;49.588;8.640;2023-02-23T03:59:57;12.60;93.90
68691;DHT22;55675;49.588;8.640;2023-02-23T04:02:43;12.60;93.90
68691;DHT22;55675;49.588;8.640;2023-02-23T04:05:28;12.70;93.90
68691;DHT22;55675;49.588;8.640;2023-02-23T04:08:13;12.70;93.90
68691;DHT22;55675;49.588;8.640;2023-02-23T04:11:14;12.70;93.80
68691;DHT22;55675;49.588;8.640;2023-02-23T04:14:03;12.70;93.80
68691;DHT22;55675;49.588;8.640;2023-02-23T04:16:29;12.60;93.90
68691;DHT22;55675;49.588;8.640;2023-02-23T04:18:56;12.60;93.90
68691;DHT22;55675;49.588;8.640;2023-02-23T04:21:21;12.60;94.10
68691;DHT22;55675;49.588;8.640;2023-02-23T04:23:47;12.60;94.20
68691;DHT22;55675;49.588;8.640;2023-02-23T04:26:12;12.60;94.20
68691;DHT22;55675;49.588;8.640;2023-02-23T04:28:37;12.60;94.10
68691;DHT22;55675;49.588;8.640;2023-02-23T04:31:03;12.60;94.10
68691;DHT22;55675;49.588;8.640;2023-02-23T04:33:28;12.60;94.20
68691;DHT22;55675;49.588;8.640;2023-02-23T04:35:54;12.60;94.30
68691;DHT22;55675;49.588;8.640;2023-02-23T04:38:20;12.50;94.20
68691;DHT22;55675;49.588;8.640;2023-02-23T04:40:45;12.50;94.30
68691;DHT22;55675;49.588;8.640;2023-02-23T04:43:11;12.50;94.40
68691;DHT22;55675;49.588;8.640;2023-02-23T04:45:37;12.50;94.60
68691;DHT22;55675;49.588;8.640;2023-02-23T04:48:02;12.50;94.60
68691;DHT22;55675;49.588;8.640;2023-02-23T04:50:28;12.50;94.60
68691;DHT22;55675;49.588;8.640;2023-02-23T04:52:54;12.50;94.60
68691;DHT22;55675;49.588;8.640;2023-02-23T04:55:21;12.50;94.70
68691;DHT22;55675;49.588;8.640;2023-02-23T04:57:47;12.50;94.80
68691;DHT22;55675;49.588;8.640;2023-02-23T05:00:13;12.50;94.70
68691;DHT22;55675;49.588;8.640;2023-02-23T05:02:39;12.50;94.80
68691;DHT22;55675;49.588;8.640;2023-02-23T05:05:05;12.50;94.80
68691;DHT22;55675;49.588;8.640;2023-02-23T05:07:31;12.50;94.80
68691;DHT22;55675;49.588;8.640;2023-02-23T05:09:57;12.50;94.80
68691;DHT22;55675;49.588;8.640;2023-02-23T05:12:22;12.50;94.80
68691;DHT22;55675;49.588;8.640;2023-02-23T05:14:48;12.50;94.80
68691;DHT22;55675;49.588;8.640;2023-02-23T05:17:13;12.50;94.90
68691;DHT22;55675;49.588;8.640;2023-02-23T05:19:39;12.50;94.90
68691;DHT22;55675;49.588;8.640;2023-02-23T05:22:05;12.50;94.90
68691;DHT22;55675;49.588;8.640;2023-02-23T05:24:30;12.50;94.90
68691;DHT22;55675;49.588;8.640;2023-02-23T05:26:56;12.50;95.00
68691;DHT22;55675;49.588;8.640;2023-02-23T05:29:21;12.50;94.90
68691;DHT22;55675;49.588;8.640;2023-02-23T05:31:47;12.50;95.00
68691;DHT22;55675;49.588;8.640;2023-02-23T05:34:13;12.50;95.00
68691;DHT22;55675;49.588;8.640;2023-02-23T05:36:38;12.50;95.00
68691;DHT22;55675;49.588;8.640;2023-02-23T05:39:04;12.50;95.00
68691;DHT22;55675;49.588;8.640;2023-02-23T05:41:29;12.50;95.10
68691;DHT22;55675;49.588;8.640;2023-02-23T05:43:54;12.50;95.10
68691;DHT22;55675;49.588;8.640;2023-02-23T05:46:22;12.50;95.00
68691;DHT22;55675;49.588;8.640;2023-02-23T05:48:48;12.50;95.10
68691;DHT22;55675;49.588;8.640;2023-02-23T05:51:14;12.50;95.20
68691;DHT22;55675;49.588;8.640;2023-02-23T05:53:39;12.50;95.20
68691;DHT22;55675;49.588;8.640;2023-02-23T05:56:06;12.50;95.20
68691;DHT22;55675;49.588;8.640;2023-02-23T05:58:32;12.50;95.30
68691;DHT22;55675;49.588;8.640;2023-02-23T06:00:57;12.60;95.40
68691;DHT22;55675;49.588;8.640;2023-02-23T06:03:23;12.60;95.30
68691;DHT22;55675;49.588;8.640;2023-02-23T06:05:51;12.50;95.30
68691;DHT22;55675;49.588;8.640;2023-02-23T06:08:17;12.50;95.30
68691;DHT22;55675;49.588;8.640;2023-02-23T06:10:43;12.50;95.30
68691;DHT22;55675;49.588;8.640;2023-02-23T06:13:08;12.50;95.30
68691;DHT22;55675;49.588;8.640;2023-02-23T06:15:34;12.60;95.40
68691;DHT22;55675;49.588;8.640;2023-02-23T06:18:00;12.50;95.30
68691;DHT22;55675;49.588;8.640;2023-02-23T06:20:25;12.50;95.30
68691;DHT22;55675;49.588;8.640;2023-02-23T06:22:51;12.50;95.40
68691;DHT22;55675;49.588;8.640;2023-02-23T06:25:16;12.50;95.50
68691;DHT22;55675;49.588;8.640;2023-02-23T06:27:41;12.50;95.50
68691;DHT22;55675;49.588;8.640;2023-02-23T06:30:09;12.50;95.50
68691;DHT22;55675;49.588;8.640;2023-02-23T06:32:35;12.50;95.50
68691;DHT22;55675;49.588;8.640;2023-02-23T06:35:02;12.50;95.50
68691;DHT22;55675;49.588;8.640;2023-02-23T06:37:29;12.50;95.50
68691;DHT22;55675;49.588;8.640;2023-02-23T06:39:54;12.50;95.60
68691;DHT22;55675;49.588;8.640;2023-02-23T06:42:20;12.50;95.60
68691;DHT22;55675;49.588;8.640;2023-02-23T06:44:45;12.50;95.50
68691;DHT22;55675;49.588;8.640;2023-02-23T06:47:11;12.50;95.50
68691;DHT22;55675;49.588;8.640;2023-02-23T06:49:36;12.60;95.50
68691;DHT22;55675;49.588;8.640;2023-02-23T06:52:02;12.60;95.50
68691;DHT22;55675;49.588;8.640;2023-02-23T06:54:27;12.60;95.50
68691;DHT22;55675;49.588;8.640;2023-02-23T06:56:52;12.60;95.50
68691;DHT22;55675;49.588;8.640;2023-02-23T06:59:19;12.60;95.50
68691;DHT22;55675;49.588;8.640;2023-02-23T07:01:45;12.70;95.50
68691;DHT22;55675;49.588;8.640;2023-02-23T07:04:11;12.70;95.50
68691;DHT22;55675;49.588;8.640;2023-02-23T07:06:36;12.70;95.40
68691;DHT22;55675;49.588;8.640;2023-02-23T07:09:03;12.80;95.40
68691;DHT22;55675;49.588;8.640;2023-02-23T07:11:28;12.70;95.40
68691;DHT22;55675;49.588;8.640;2023-02-23T07:13:56;12.80;95.50
68691;DHT22;55675;49.588;8.640;2023-02-23T07:16:21;12.80;95.40
68691;DHT22;55675;49.588;8.640;2023-02-23T07:18:48;12.80;95.40
68691;DHT22;55675;49.588;8.640;2023-02-23T07:21:13;12.80;95.40
68691;DHT22;55675;49.588;8.640;2023-02-23T07:23:38;12.90;95.40
68691;DHT22;55675;49.588;8.640;2023-02-23T07:26:04;12.90;95.30
68691;DHT22;55675;49.588;8.640;2023-02-23T07:28:29;12.90;95.40
68691;DHT22;55675;49.588;8.640;2023-02-23T07:30:55;12.90;95.30
68691;DHT22;55675;49.588;8.640;2023-02-23T07:33:21;12.90;95.30
68691;DHT22;55675;49.588;8.640;2023-02-23T07:35:47;12.90;95.30
68691;DHT22;55675;49.588;8.640;2023-02-23T07:38:13;13.00;95.30
68691;DHT22;55675;49.588;8.640;2023-02-23T07:40:38;13.00;95.30
68691;DHT22;55675;49.588;8.640;2023-02-23T07:43:04;13.10;95.20
68691;DHT22;55675;49.588;8.640;2023-02-23T07:45:29;13.10;95.20
68691;DHT22;55675;49.588;8.640;2023-02-23T07:47:55;13.10;95.10
68691;DHT22;55675;49.588;8.640;2023-02-23T07:50:20;13.20;95.10
68691;DHT22;55675;49.588;8.640;2023-02-23T07:52:46;13.20;95.10
68691;DHT22;55675;49.588;8.640;2023-02-23T07:55:11;13.20;95.10
68691;DHT22;55675;49.588;8.640;2023-02-23T07:57:37;13.20;95.10
68691;DHT22;55675;49.588;8.640;2023-02-23T08:00:03;13.30;95.10
68691;DHT22;55675;49.588;8.640;2023-02-23T08:02:29;13.30;95.00
68691;DHT22;55675;49.588;8.640;2023-02-23T08:04:56;13.30;95.00
68691;DHT22;55675;49.588;8.640;2023-02-23T08:07:21;13.30;95.00
68691;DHT22;55675;49.588;8.640;2023-02-23T08:09:47;13.30;95.00
68691;DHT22;55675;49.588;8.640;2023-02-23T08:12:13;13.30;94.90
68691;DHT22;55675;49.588;8.640;2023-02-23T08:14:40;13.30;94.90
68691;DHT22;55675;49.588;8.640;2023-02-23T08:17:06;13.30;94.80
68691;DHT22;55675;49.588;8.640;2023-02-23T08:19:31;13.20;94.80
68691;DHT22;55675;49.588;8.640;2023-02-23T08:21:58;13.20;94.90
68691;DHT22;55675;49.588;8.640;2023-02-23T08:24:24;13.30;94.90
68691;DHT22;55675;49.588;8.640;2023-02-23T08:26:50;13.20;94.90
68691;DHT22;55675;49.588;8.640;2023-02-23T08:29:16;13.20;94.90
68691;DHT22;55675;49.588;8.640;2023-02-23T08:31:41;13.30;95.00
68691;DHT22;55675;49.588;8.640;2023-02-23T08:34:07;13.30;95.00
68691;DHT22;55675;49.588;8.640;2023-02-23T08:36:32;13.30;95.00
68691;DHT22;55675;49.588;8.640;2023-02-23T08:38:58;13.40;94.90
68691;DHT22;55675;49.588;8.640;2023-02-23T08:41:24;13.30;94.80
68691;DHT22;55675;49.588;8.640;2023-02-23T08:43:52;13.30;94.80
68691;DHT22;55675;49.588;8.640;2023-02-23T08:46:17;13.30;94.90
68691;DHT22;55675;49.588;8.640;2023-02-23T08:48:44;13.30;95.00
68691;DHT22;55675;49.588;8.640;2023-02-23T08:51:10;13.30;95.00
68691;DHT22;55675;49.588;8.640;2023-02-23T08:53:36;13.30;95.00
68691;DHT22;55675;49.588;8.640;2023-02-23T08:56:03;13.40;95.00
68691;DHT22;55675;49.588;8.640;2023-02-23T08:58:29;13.50;95.00
68691;DHT22;55675;49.588;8.640;2023-02-23T09:00:55;13.50;95.00
68691;DHT22;55675;49.588;8.640;2023-02-23T09:03:21;13.60;95.00
68691;DHT22;55675;49.588;8.640;2023-02-23T09:05:46;13.70;94.90
68691;DHT22;55675;49.588;8.640;2023-02-23T09:08:11;13.90;94.90
68691;DHT22;55675;49.588;8.640;2023-02-23T09:10:37;14.00;94.60
68691;DHT22;55675;49.588;8.640;2023-02-23T09:13:03;14.10;94.30
68691;DHT22;55675;49.588;8.640;2023-02-23T09:15:28;14.20;94.10
68691;DHT22;55675;49.588;8.640;2023-02-23T09:17:58;14.20;94.00
68691;DHT22;55675;49.588;8.640;2023-02-23T09:20:24;14.30;93.90
68691;DHT22;55675;49.588;8.640;2023-02-23T09:22:51;14.40;93.70
68691;DHT22;55675;49.588;8.640;2023-02-23T09:25:18;14.40;93.80
68691;DHT22;55675;49.588;8.640;2023-02-23T09:27:55;14.40;93.80
68691;DHT22;55675;49.588;8.640;2023-02-23T09:30:21;14.50;93.70
68691;DHT22;55675;49.588;8.640;2023-02-23T09:32:47;14.60;93.60
68691;DHT22;55675;49.588;8.640;2023-02-23T09:35:13;14.60;93.50
68691;DHT22;55675;49.588;8.640;2023-02-23T09:37:43;14.60;93.30
68691;DHT22;55675;49.588;8.640;2023-02-23T09:40:13;14.60;93.20
68691;DHT22;55675;49.588;8.640;2023-02-23T09:42:41;14.70;93.20
68691;DHT22;55675;49.588;8.640;2023-02-23T09:50:22;15.00;92.80
68691;DHT22;55675;49.588;8.640;2023-02-23T09:52:51;15.10;92.80
68691;DHT22;55675;49.588;8.640;2023-02-23T09:55:17;15.30;92.70
68691;DHT22;55675;49.588;8.640;2023-02-23T09:57:44;15.40;92.50
68691;DHT22;55675;49.588;8.640;2023-02-23T10:00:21;15.50;92.30
68691;DHT22;55675;49.588;8.640;2023-02-23T10:03:06;15.60;92.20
68691;DHT22;55675;49.588;8.640;2023-02-23T10:05:37;15.70;92.10
68691;DHT22;55675;49.588;8.640;2023-02-23T10:08:10;15.80;91.90
68691;DHT22;55675;49.588;8.640;2023-02-23T10:10:39;16.00;91.80
68691;DHT22;55675;49.588;8.640;2023-02-23T10:20:48;17.10;90.50
68691;DHT22;55675;49.588;8.640;2023-02-23T10:23:21;17.30;90.20
68691;DHT22;55675;49.588;8.640;2023-02-23T10:25:48;17.60;88.60
68691;DHT22;55675;49.588;8.640;2023-02-23T10:28:15;17.70;87.00
68691;DHT22;55675;49.588;8.640;2023-02-23T10:30:41;17.90;87.10
68691;DHT22;55675;49.588;8.640;2023-02-23T10:33:15;18.10;84.30
68691;DHT22;55675;49.588;8.640;2023-02-23T10:35:43;18.20;83.10
68691;DHT22;55675;49.588;8.640;2023-02-23T10:38:15;18.20;81.90
68691;DHT22;55675;49.588;8.640;2023-02-23T10:40:40;18.30;79.80
68691;DHT22;55675;49.588;8.640;2023-02-23T10:43:08;18.30;79.00
68691;DHT22;55675;49.588;8.640;2023-02-23T10:45:36;18.10;76.50
68691;DHT22;55675;49.588;8.640;2023-02-23T10:48:04;17.80;78.00
68691;DHT22;55675;49.588;8.640;2023-02-23T10:50:37;17.60;77.50
68691;DHT22;55675;49.588;8.640;2023-02-23T10:53:22;17.40;78.70
68691;DHT22;55675;49.588;8.640;2023-02-23T10:56:07;17.10;78.40
68691;DHT22;55675;49.588;8.640;2023-02-23T10:58:50;16.80;79.30
68691;DHT22;55675;49.588;8.640;2023-02-23T11:04:20;16.60;80.10
68691;DHT22;55675;49.588;8.640;2023-02-23T11:06:49;16.50;78.20
68691;DHT22;55675;49.588;8.640;2023-02-23T11:11:54;16.40;79.90
68691;DHT22;55675;49.588;8.640;2023-02-23T11:14:23;16.40;79.80
68691;DHT22;55675;49.588;8.640;2023-02-23T11:16:49;16.50;79.70
68691;DHT22;55675;49.588;8.640;2023-02-23T11:19:27;16.80;78.60
68691;DHT22;55675;49.588;8.640;2023-02-23T11:21:54;17.20;78.50
68691;DHT22;55675;49.588;8.640;2023-02-23T11:26:46;17.90;74.20
68691;DHT22;55675;49.588;8.640;2023-02-23T11:29:19;18.00;73.90
68691;DHT22;55675;49.588;8.640;2023-02-23T11:31:48;18.20;73.00
68691;DHT22;55675;49.588;8.640;2023-02-23T11:34:19;18.10;71.80
68691;DHT22;55675;49.588;8.640;2023-02-23T11:36:47;18.00;72.10
68691;DHT22;55675;49.588;8.640;2023-02-23T11:39:21;17.80;72.10
68691;DHT22;55675;49.588;8.640;2023-02-23T11:42:05;17.70;73.20
68691;DHT22;55675;49.588;8.640;2023-02-23T11:44:34;17.50;72.40
68691;DHT22;55675;49.588;8.640;2023-02-23T11:46:59;17.30;71.90
68691;DHT22;55675;49.588;8.640;2023-02-23T11:49:31;17.20;71.90
68691;DHT22;55675;49.588;8.640;2023-02-23T11:52:00;17.00;72.70
68691;DHT22;55675;49.588;8.640;2023-02-23T11:54:30;16.90;73.70
68691;DHT22;55675;49.588;8.640;2023-02-23T11:56:57;16.70;73.80
68691;DHT22;55675;49.588;8.640;2023-02-23T11:59:30;16.70;74.20
68691;DHT22;55675;49.588;8.640;2023-02-23T12:02:04;16.80;73.90
68691;DHT22;55675;49.588;8.640;2023-02-23T12:04:31;16.90;74.10
68691;DHT22;55675;49.588;8.640;2023-02-23T12:09:43;17.10;73.40
68691;DHT22;55675;49.588;8.640;2023-02-23T12:12:12;17.30;73.50
68691;DHT22;55675;49.588;8.640;2023-02-23T12:14:48;17.40;73.70
68691;DHT22;55675;49.588;8.640;2023-02-23T12:17:23;17.50;73.30
68691;DHT22;55675;49.588;8.640;2023-02-23T12:20:11;17.60;72.70
68691;DHT22;55675;49.588;8.640;2023-02-23T12:22:38;17.50;71.50
68691;DHT22;55675;49.588;8.640;2023-02-23T12:27:53;17.90;72.50
68691;DHT22;55675;49.588;8.640;2023-02-23T12:30:22;18.20;71.80
68691;DHT22;55675;49.588;8.640;2023-02-23T12:40:32;18.60;67.40
68691;DHT22;55675;49.588;8.640;2023-02-23T12:43:06;18.60;67.20
68691;DHT22;55675;49.588;8.640;2023-02-23T12:48:12;18.30;67.20
68691;DHT22;55675;49.588;8.640;2023-02-23T12:50:39;18.20;67.80
68691;DHT22;55675;49.588;8.640;2023-02-23T12:56:01;17.90;66.00
68691;DHT22;55675;49.588;8.640;2023-02-23T13:01:30;17.40;67.60
68691;DHT22;55675;49.588;8.640;2023-02-23T13:06:35;17.40;69.00
68691;DHT22;55675;49.588;8.640;2023-02-23T13:09:06;17.40;69.40
68691;DHT22;55675;49.588;8.640;2023-02-23T13:14:28;17.80;69.00
68691;DHT22;55675;49.588;8.640;2023-02-23T13:17:05;18.00;68.70
68691;DHT22;55675;49.588;8.640;2023-02-23T13:19:36;18.20;67.30
68691;DHT22;55675;49.588;8.640;2023-02-23T13:22:13;18.70;67.10
68691;DHT22;55675;49.588;8.640;2023-02-23T13:24:46;19.10;66.90
68691;DHT22;55675;49.588;8.640;2023-02-23T13:27:26;19.40;65.40
68691;DHT22;55675;49.588;8.640;2023-02-23T13:29:54;19.60;63.90
68691;DHT22;55675;49.588;8.640;2023-02-23T13:32:21;19.60;62.80
68691;DHT22;55675;49.588;8.640;2023-02-23T13:34:52;19.20;60.40
68691;DHT22;55675;49.588;8.640;2023-02-23T13:37:20;18.90;60.50
68691;DHT22;55675;49.588;8.640;2023-02-23T13:45:21;18.40;62.80
68691;DHT22;55675;49.588;8.640;2023-02-23T13:47:57;18.30;63.60
68691;DHT22;55675;49.588;8.640;2023-02-23T13:53:06;17.90;63.40
68691;DHT22;55675;49.588;8.640;2023-02-23T13:55:33;17.80;64.00
68691;DHT22;55675;49.588;8.640;2023-02-23T13:58:12;17.70;64.20
68691;DHT22;55675;49.588;8.640;2023-02-23T14:00:39;17.60;64.60
68691;DHT22;55675;49.588;8.640;2023-02-23T14:03:05;17.50;64.40
68691;DHT22;55675;49.588;8.640;2023-02-23T14:05:36;17.40;64.40
68691;DHT22;55675;49.588;8.640;2023-02-23T14:08:05;17.30;64.70
68691;DHT22;55675;49.588;8.640;2023-02-23T14:10:41;17.30;64.90
68691;DHT22;55675;49.588;8.640;2023-02-23T14:15:44;17.40;65.00
68691;DHT22;55675;49.588;8.640;2023-02-23T14:23:14;17.70;64.80
68691;DHT22;55675;49.588;8.640;2023-02-23T14:25:50;17.70;64.40
68691;DHT22;55675;49.588;8.640;2023-02-23T14:33:49;17.80;64.40
68691;DHT22;55675;49.588;8.640;2023-02-23T14:41:24;17.50;64.90
68691;DHT22;55675;49.588;8.640;2023-02-23T14:43:54;17.50;65.00
68691;DHT22;55675;49.588;8.640;2023-02-23T14:46:24;17.50;65.00
68691;DHT22;55675;49.588;8.640;2023-02-23T14:51:47;17.40;65.10
68691;DHT22;55675;49.588;8.640;2023-02-23T14:54:32;17.30;65.50
68691;DHT22;55675;49.588;8.640;2023-02-23T14:56:59;17.30;65.30
68691;DHT22;55675;49.588;8.640;2023-02-23T14:59:26;17.20;65.40
68691;DHT22;55675;49.588;8.640;2023-02-23T15:01:51;17.20;65.40
68691;DHT22;55675;49.588;8.640;2023-02-23T15:04:26;17.30;65.10
68691;DHT22;55675;49.588;8.640;2023-02-23T15:06:55;17.30;64.10
68691;DHT22;55675;49.588;8.640;2023-02-23T15:09:24;17.30;64.50
68691;DHT22;55675;49.588;8.640;2023-02-23T15:11:54;17.30;64.80
68691;DHT22;55675;49.588;8.640;2023-02-23T15:14:20;17.40;64.60
68691;DHT22;55675;49.588;8.640;2023-02-23T15:16:46;17.40;64.60
68691;DHT22;55675;49.588;8.640;2023-02-23T15:19:29;17.40;63.60
68691;DHT22;55675;49.588;8.640;2023-02-23T15:21:57;17.30;63.70
68691;DHT22;55675;49.588;8.640;2023-02-23T15:24:26;17.20;64.50
68691;DHT22;55675;49.588;8.640;2023-02-23T15:26:55;17.20;64.80
68691;DHT22;55675;49.588;8.640;2023-02-23T15:29:22;17.20;65.20
68691;DHT22;55675;49.588;8.640;2023-02-23T15:31:49;17.10;65.10
68691;DHT22;55675;49.588;8.640;2023-02-23T15:34:26;17.00;65.30
68691;DHT22;55675;49.588;8.640;2023-02-23T15:36:59;17.00;65.80
68691;DHT22;55675;49.588;8.640;2023-02-23T15:42:00;16.90;66.40
68691;DHT22;55675;49.588;8.640;2023-02-23T15:44:26;16.80;66.80
68691;DHT22;55675;49.588;8.640;2023-02-23T15:47:05;16.70;66.90
68691;DHT22;55675;49.588;8.640;2023-02-23T15:49:35;16.70;67.40
68691;DHT22;55675;49.588;8.640;2023-02-23T15:52:17;16.60;67.50
68691;DHT22;55675;49.588;8.640;2023-02-23T15:57:26;16.60;67.90
68691;DHT22;55675;49.588;8.640;2023-02-23T15:59:53;16.50;68.20
68691;DHT22;55675;49.588;8.640;2023-02-23T16:02:22;16.50;68.30
68691;DHT22;55675;49.588;8.640;2023-02-23T16:04:48;16.50;68.50
68691;DHT22;55675;49.588;8.640;2023-02-23T16:07:15;16.50;68.80
68691;DHT22;55675;49.588;8.640;2023-02-23T16:09:52;16.50;69.00
68691;DHT22;55675;49.588;8.640;2023-02-23T16:12:18;16.40;69.10
68691;DHT22;55675;49.588;8.640;2023-02-23T16:14:45;16.30;69.50
68691;DHT22;55675;49.588;8.640;2023-02-23T16:17:19;16.30;69.50
68691;DHT22;55675;49.588;8.640;2023-02-23T16:19:45;16.20;70.30
68691;DHT22;55675;49.588;8.640;2023-02-23T16:22:17;16.20;69.70
68691;DHT22;55675;49.588;8.640;2023-02-23T16:24:42;16.20;69.90
68691;DHT22;55675;49.588;8.640;2023-02-23T16:27:09;16.10;70.20
68691;DHT22;55675;49.588;8.640;2023-02-23T16:29:36;16.10;70.20
68691;DHT22;55675;49.588;8.640;2023-02-23T16:32:18;16.00;70.40
68691;DHT22;55675;49.588;8.640;2023-02-23T16:37:13;15.90;70.80
68691;DHT22;55675;49.588;8.640;2023-02-23T16:39:39;15.80;71.00
68691;DHT22;55675;49.588;8.640;2023-02-23T16:42:05;15.70;71.30
68691;DHT22;55675;49.588;8.640;2023-02-23T16:44:30;15.70;71.50
68691;DHT22;55675;49.588;8.640;2023-02-23T16:47:09;15.60;71.80
68691;DHT22;55675;49.588;8.640;2023-02-23T16:49:35;15.50;71.80
68691;DHT22;55675;49.588;8.640;2023-02-23T16:52:02;15.40;72.90
68691;DHT22;55675;49.588;8.640;2023-02-23T16:54:28;15.40;73.00
68691;DHT22;55675;49.588;8.640;2023-02-23T16:56:54;15.30;73.20
68691;DHT22;55675;49.588;8.640;2023-02-23T16:59:20;15.20;73.50
68691;DHT22;55675;49.588;8.640;2023-02-23T17:01:46;15.20;73.60
68691;DHT22;55675;49.588;8.640;2023-02-23T17:04:15;15.20;74.60
68691;DHT22;55675;49.588;8.640;2023-02-23T17:06:41;15.00;74.30
68691;DHT22;55675;49.588;8.640;2023-02-23T17:09:10;15.00;74.40
68691;DHT22;55675;49.588;8.640;2023-02-23T17:11:37;14.90;74.70
68691;DHT22;55675;49.588;8.640;2023-02-23T17:14:03;14.80;74.80
68691;DHT22;55675;49.588;8.640;2023-02-23T17:16:28;14.80;75.10
68691;DHT22;55675;49.588;8.640;2023-02-23T17:18:53;14.70;75.50
68691;DHT22;55675;49.588;8.640;2023-02-23T17:21:19;14.60;76.80
68691;DHT22;55675;49.588;8.640;2023-02-23T17:23:48;14.60;77.50
68691;DHT22;55675;49.588;8.640;2023-02-23T17:26:16;14.50;78.20
68691;DHT22;55675;49.588;8.640;2023-02-23T17:28:42;14.50;78.90
68691;DHT22;55675;49.588;8.640;2023-02-23T17:31:07;14.50;78.50